sensor_id;sensor_type;location;lat;lon;timestamp;P1;durP1;ratioP1;P2;durP2;ratioP2
18596;SDS011;9428;50.950;6.912;2023-07-29T00:01:16;14.38;;;5.03;;
18596;SDS011;9428;50.950;6.912;2023-07-29T00:04:04;12.55;;;4.90;;
18596;SDS011;9428;50.950;6.912;2023-07-29T00:06:51;11.65;;;4.93;;
18596;SDS011;9428;50.950;6.912;2023-07-29T00:09:40;10.95;;;4.90;;
18596;SDS011;9428;50.950;6.912;2023-07-29T00:12:27;11.73;;;4.28;;
18596;SDS011;9428;50.950;6.912;2023-07-29T00:15:14;7.63;;;3.33;;
18596;SDS011;9428;50.950;6.912;2023-07-29T00:18:01;5.82;;;2.90;;
18596;SDS011;9428;50.950;6.912;2023-07-29T00:20:49;8.75;;;3.17;;
18596;SDS011;9428;50.950;6.912;2023-07-29T00:23:36;9.98;;;4.43;;
18596;SDS011;9428;50.950;6.912;2023-07-29T00:26:25;15.30;;;5.63;;
18596;SDS011;9428;50.950;6.912;2023-07-29T00:29:14;13.13;;;4.85;;
18596;SDS011;9428;50.950;6.912;2023-07-29T00:32:01;10.90;;;4.30;;
18596;SDS011;9428;50.950;6.912;2023-07-29T00:34:49;9.32;;;4.20;;
18596;SDS011;9428;50.950;6.912;2023-07-29T00:37:36;12.85;;;5.32;;
18596;SDS011;9428;50.950;6.912;2023-07-29T00:40:24;9.38;;;3.80;;
18596;SDS011;9428;50.950;6.912;2023-07-29T00:43:15;8.63;;;4.00;;
18596;SDS011;9428;50.950;6.912;2023-07-29T00:46:02;6.68;;;4.00;;
18596;SDS011;9428;50.950;6.912;2023-07-29T00:48:50;11.27;;;5.25;;
18596;SDS011;9428;50.950;6.912;2023-07-29T00:51:38;8.50;;;4.15;;
18596;SDS011;9428;50.950;6.912;2023-07-29T00:54:25;10.82;;;3.47;;
18596;SDS011;9428;50.950;6.912;2023-07-29T00:57:12;9.13;;;4.38;;
18596;SDS011;9428;50.950;6.912;2023-07-29T01:00:03;7.97;;;3.40;;
18596;SDS011;9428;50.950;6.912;2023-07-29T01:02:52;9.50;;;3.85;;
18596;SDS011;9428;50.950;6.912;2023-07-29T01:05:41;13.73;;;4.88;;
18596;SDS011;9428;50.950;6.912;2023-07-29T01:08:38;10.50;;;4.07;;
18596;SDS011;9428;50.950;6.912;2023-07-29T01:11:38;7.38;;;4.22;;
18596;SDS011;9428;50.950;6.912;2023-07-29T01:14:36;2.35;;;2.05;;
18596;SDS011;9428;50.950;6.912;2023-07-29T01:17:32;2.72;;;2.05;;
18596;SDS011;9428;50.950;6.912;2023-07-29T01:20:21;4.97;;;2.55;;
18596;SDS011;9428;50.950;6.912;2023-07-29T01:23:10;5.10;;;2.83;;
18596;SDS011;9428;50.950;6.912;2023-07-29T01:25:59;4.18;;;3.42;;
18596;SDS011;9428;50.950;6.912;2023-07-29T01:28:46;10.55;;;5.13;;
18596;SDS011;9428;50.950;6.912;2023-07-29T01:31:34;10.05;;;4.05;;
18596;SDS011;9428;50.950;6.912;2023-07-29T01:34:31;9.27;;;5.22;;
18596;SDS011;9428;50.950;6.912;2023-07-29T01:37:25;4.75;;;3.28;;
18596;SDS011;9428;50.950;6.912;2023-07-29T01:40:13;4.45;;;2.75;;
18596;SDS011;9428;50.950;6.912;2023-07-29T01:43:02;2.75;;;2.33;;
18596;SDS011;9428;50.950;6.912;2023-07-29T01:45:49;8.63;;;4.10;;
18596;SDS011;9428;50.950;6.912;2023-07-29T01:48:37;5.22;;;3.53;;
18596;SDS011;9428;50.950;6.912;2023-07-29T01:51:24;4.07;;;3.38;;
18596;SDS011;9428;50.950;6.912;2023-07-29T01:54:11;6.88;;;4.10;;
18596;SDS011;9428;50.950;6.912;2023-07-29T01:56:59;7.95;;;3.90;;
18596;SDS011;9428;50.950;6.912;2023-07-29T01:59:47;6.35;;;2.90;;
18596;SDS011;9428;50.950;6.912;2023-07-29T02:02:35;3.40;;;2.97;;
18596;SDS011;9428;50.950;6.912;2023-07-29T02:05:22;11.90;;;4.07;;
18596;SDS011;9428;50.950;6.912;2023-07-29T02:08:09;6.25;;;4.38;;
18596;SDS011;9428;50.950;6.912;2023-07-29T02:10:57;8.73;;;3.97;;
18596;SDS011;9428;50.950;6.912;2023-07-29T02:13:44;4.03;;;2.80;;
18596;SDS011;9428;50.950;6.912;2023-07-29T02:16:32;2.65;;;2.15;;
18596;SDS011;9428;50.950;6.912;2023-07-29T02:19:20;3.97;;;2.53;;
18596;SDS011;9428;50.950;6.912;2023-07-29T02:22:07;3.92;;;2.70;;
18596;SDS011;9428;50.950;6.912;2023-07-29T02:24:54;2.53;;;1.98;;
18596;SDS011;9428;50.950;6.912;2023-07-29T02:27:41;3.85;;;2.35;;
18596;SDS011;9428;50.950;6.912;2023-07-29T02:30:29;2.55;;;2.20;;
18596;SDS011;9428;50.950;6.912;2023-07-29T02:33:17;2.85;;;1.90;;
18596;SDS011;9428;50.950;6.912;2023-07-29T02:36:05;3.30;;;2.40;;
18596;SDS011;9428;50.950;6.912;2023-07-29T02:38:52;5.47;;;2.30;;
18596;SDS011;9428;50.950;6.912;2023-07-29T02:41:39;4.00;;;2.38;;
18596;SDS011;9428;50.950;6.912;2023-07-29T02:44:26;4.70;;;2.10;;
18596;SDS011;9428;50.950;6.912;2023-07-29T02:47:13;6.15;;;1.80;;
18596;SDS011;9428;50.950;6.912;2023-07-29T02:50:02;5.00;;;2.05;;
18596;SDS011;9428;50.950;6.912;2023-07-29T02:52:50;2.33;;;1.40;;
18596;SDS011;9428;50.950;6.912;2023-07-29T02:55:39;4.05;;;1.50;;
18596;SDS011;9428;50.950;6.912;2023-07-29T02:58:26;4.00;;;1.65;;
18596;SDS011;9428;50.950;6.912;2023-07-29T03:01:13;2.92;;;1.38;;
18596;SDS011;9428;50.950;6.912;2023-07-29T03:04:00;2.25;;;1.40;;
18596;SDS011;9428;50.950;6.912;2023-07-29T03:06:49;1.50;;;1.40;;
18596;SDS011;9428;50.950;6.912;2023-07-29T03:09:37;2.53;;;1.38;;
18596;SDS011;9428;50.950;6.912;2023-07-29T03:12:24;2.75;;;1.40;;
18596;SDS011;9428;50.950;6.912;2023-07-29T03:15:12;2.58;;;1.40;;
18596;SDS011;9428;50.950;6.912;2023-07-29T03:17:59;2.75;;;1.58;;
18596;SDS011;9428;50.950;6.912;2023-07-29T03:20:46;2.25;;;1.38;;
18596;SDS011;9428;50.950;6.912;2023-07-29T03:23:37;2.00;;;1.20;;
18596;SDS011;9428;50.950;6.912;2023-07-29T03:26:24;1.52;;;1.00;;
18596;SDS011;9428;50.950;6.912;2023-07-29T03:29:11;1.83;;;1.30;;
18596;SDS011;9428;50.950;6.912;2023-07-29T03:31:59;3.28;;;1.33;;
18596;SDS011;9428;50.950;6.912;2023-07-29T03:34:46;2.45;;;1.15;;
18596;SDS011;9428;50.950;6.912;2023-07-29T03:37:33;2.17;;;1.40;;
18596;SDS011;9428;50.950;6.912;2023-07-29T03:40:22;5.78;;;1.20;;
18596;SDS011;9428;50.950;6.912;2023-07-29T03:43:09;5.03;;;2.03;;
18596;SDS011;9428;50.950;6.912;2023-07-29T03:45:56;1.88;;;1.30;;
18596;SDS011;9428;50.950;6.912;2023-07-29T03:48:43;4.25;;;2.28;;
18596;SDS011;9428;50.950;6.912;2023-07-29T03:51:31;7.80;;;2.35;;
18596;SDS011;9428;50.950;6.912;2023-07-29T03:54:18;8.75;;;3.83;;
18596;SDS011;9428;50.950;6.912;2023-07-29T03:57:07;3.15;;;1.42;;
18596;SDS011;9428;50.950;6.912;2023-07-29T03:59:54;4.38;;;2.05;;
18596;SDS011;9428;50.950;6.912;2023-07-29T04:02:41;1.80;;;1.30;;
18596;SDS011;9428;50.950;6.912;2023-07-29T04:05:30;2.78;;;1.60;;
18596;SDS011;9428;50.950;6.912;2023-07-29T04:08:18;3.05;;;1.73;;
18596;SDS011;9428;50.950;6.912;2023-07-29T04:11:05;3.67;;;1.80;;
18596;SDS011;9428;50.950;6.912;2023-07-29T04:13:54;3.20;;;1.60;;
18596;SDS011;9428;50.950;6.912;2023-07-29T04:16:41;3.53;;;1.67;;
18596;SDS011;9428;50.950;6.912;2023-07-29T04:19:29;2.47;;;1.80;;
18596;SDS011;9428;50.950;6.912;2023-07-29T04:22:16;2.90;;;1.92;;
18596;SDS011;9428;50.950;6.912;2023-07-29T04:25:03;2.72;;;1.58;;
18596;SDS011;9428;50.950;6.912;2023-07-29T04:27:51;2.60;;;1.85;;
18596;SDS011;9428;50.950;6.912;2023-07-29T04:30:41;3.15;;;1.98;;
18596;SDS011;9428;50.950;6.912;2023-07-29T04:33:28;1.80;;;1.70;;
18596;SDS011;9428;50.950;6.912;2023-07-29T04:36:16;3.13;;;1.92;;
18596;SDS011;9428;50.950;6.912;2023-07-29T04:39:03;4.50;;;1.90;;
18596;SDS011;9428;50.950;6.912;2023-07-29T04:41:50;2.42;;;2.00;;
18596;SDS011;9428;50.950;6.912;2023-07-29T04:44:38;3.38;;;2.13;;
18596;SDS011;9428;50.950;6.912;2023-07-29T04:47:28;2.45;;;2.10;;
18596;SDS011;9428;50.950;6.912;2023-07-29T04:50:16;2.28;;;2.08;;
18596;SDS011;9428;50.950;6.912;2023-07-29T04:53:03;2.55;;;2.35;;
18596;SDS011;9428;50.950;6.912;2023-07-29T04:55:50;4.13;;;2.28;;
18596;SDS011;9428;50.950;6.912;2023-07-29T04:58:37;2.90;;;2.20;;
18596;SDS011;9428;50.950;6.912;2023-07-29T05:01:25;3.45;;;2.60;;
18596;SDS011;9428;50.950;6.912;2023-07-29T05:04:13;2.33;;;2.13;;
18596;SDS011;9428;50.950;6.912;2023-07-29T05:07:01;6.63;;;2.80;;
18596;SDS011;9428;50.950;6.912;2023-07-29T05:09:48;5.13;;;2.85;;
18596;SDS011;9428;50.950;6.912;2023-07-29T05:12:35;4.85;;;2.42;;
18596;SDS011;9428;50.950;6.912;2023-07-29T05:15:22;5.05;;;2.53;;
18596;SDS011;9428;50.950;6.912;2023-07-29T05:18:10;4.68;;;2.65;;
18596;SDS011;9428;50.950;6.912;2023-07-29T05:20:58;8.63;;;3.00;;
18596;SDS011;9428;50.950;6.912;2023-07-29T05:23:46;3.05;;;2.63;;
18596;SDS011;9428;50.950;6.912;2023-07-29T05:26:33;4.00;;;2.83;;
18596;SDS011;9428;50.950;6.912;2023-07-29T05:29:20;4.70;;;3.20;;
18596;SDS011;9428;50.950;6.912;2023-07-29T05:32:08;5.18;;;2.47;;
18596;SDS011;9428;50.950;6.912;2023-07-29T05:34:55;3.30;;;2.80;;
18596;SDS011;9428;50.950;6.912;2023-07-29T05:37:44;3.55;;;2.55;;
18596;SDS011;9428;50.950;6.912;2023-07-29T05:40:31;3.83;;;2.83;;
18596;SDS011;9428;50.950;6.912;2023-07-29T05:43:18;3.03;;;2.50;;
18596;SDS011;9428;50.950;6.912;2023-07-29T05:46:05;3.97;;;2.53;;
18596;SDS011;9428;50.950;6.912;2023-07-29T05:48:53;4.32;;;2.38;;
18596;SDS011;9428;50.950;6.912;2023-07-29T05:51:40;4.00;;;2.47;;
18596;SDS011;9428;50.950;6.912;2023-07-29T05:54:28;5.93;;;2.70;;
18596;SDS011;9428;50.950;6.912;2023-07-29T05:57:15;5.30;;;2.70;;
18596;SDS011;9428;50.950;6.912;2023-07-29T06:00:03;4.38;;;2.50;;
18596;SDS011;9428;50.950;6.912;2023-07-29T06:02:51;2.85;;;2.28;;
18596;SDS011;9428;50.950;6.912;2023-07-29T06:05:38;5.75;;;2.67;;
18596;SDS011;9428;50.950;6.912;2023-07-29T06:08:26;2.80;;;2.40;;
18596;SDS011;9428;50.950;6.912;2023-07-29T06:11:16;4.22;;;2.50;;
18596;SDS011;9428;50.950;6.912;2023-07-29T06:14:03;6.63;;;2.20;;
18596;SDS011;9428;50.950;6.912;2023-07-29T06:16:50;4.18;;;2.40;;
18596;SDS011;9428;50.950;6.912;2023-07-29T06:19:37;3.47;;;2.08;;
18596;SDS011;9428;50.950;6.912;2023-07-29T06:22:24;3.85;;;1.88;;
18596;SDS011;9428;50.950;6.912;2023-07-29T06:25:12;2.92;;;2.42;;
18596;SDS011;9428;50.950;6.912;2023-07-29T06:28:00;2.10;;;1.60;;
18596;SDS011;9428;50.950;6.912;2023-07-29T06:30:47;4.32;;;2.45;;
18596;SDS011;9428;50.950;6.912;2023-07-29T06:33:35;2.78;;;2.45;;
18596;SDS011;9428;50.950;6.912;2023-07-29T06:36:22;4.57;;;2.08;;
18596;SDS011;9428;50.950;6.912;2023-07-29T06:39:09;4.28;;;1.77;;
18596;SDS011;9428;50.950;6.912;2023-07-29T06:41:56;3.90;;;1.88;;
18596;SDS011;9428;50.950;6.912;2023-07-29T06:44:45;3.83;;;1.95;;
18596;SDS011;9428;50.950;6.912;2023-07-29T06:47:33;3.85;;;1.90;;
18596;SDS011;9428;50.950;6.912;2023-07-29T06:50:20;3.78;;;1.83;;
18596;SDS011;9428;50.950;6.912;2023-07-29T06:53:07;3.28;;;1.50;;
18596;SDS011;9428;50.950;6.912;2023-07-29T06:55:55;3.03;;;1.67;;
18596;SDS011;9428;50.950;6.912;2023-07-29T06:58:42;2.65;;;1.75;;
18596;SDS011;9428;50.950;6.912;2023-07-29T07:01:31;1.77;;;1.25;;
18596;SDS011;9428;50.950;6.912;2023-07-29T07:04:18;2.78;;;1.58;;
18596;SDS011;9428;50.950;6.912;2023-07-29T07:07:05;5.97;;;2.35;;
18596;SDS011;9428;50.950;6.912;2023-07-29T07:09:53;5.28;;;2.00;;
18596;SDS011;9428;50.950;6.912;2023-07-29T07:12:40;3.20;;;1.70;;
18596;SDS011;9428;50.950;6.912;2023-07-29T07:15:28;3.05;;;1.75;;
18596;SDS011;9428;50.950;6.912;2023-07-29T07:18:16;3.05;;;1.85;;
18596;SDS011;9428;50.950;6.912;2023-07-29T07:21:04;2.78;;;1.83;;
18596;SDS011;9428;50.950;6.912;2023-07-29T07:23:51;3.42;;;2.15;;
18596;SDS011;9428;50.950;6.912;2023-07-29T07:26:38;1.98;;;1.52;;
18596;SDS011;9428;50.950;6.912;2023-07-29T07:29:25;3.40;;;1.67;;
18596;SDS011;9428;50.950;6.912;2023-07-29T07:32:12;2.35;;;1.60;;
18596;SDS011;9428;50.950;6.912;2023-07-29T07:35:01;3.30;;;1.67;;
18596;SDS011;9428;50.950;6.912;2023-07-29T07:37:49;1.50;;;1.40;;
18596;SDS011;9428;50.950;6.912;2023-07-29T07:40:37;3.67;;;1.60;;
18596;SDS011;9428;50.950;6.912;2023-07-29T07:43:24;2.50;;;1.48;;
18596;SDS011;9428;50.950;6.912;2023-07-29T07:46:11;4.43;;;1.70;;
18596;SDS011;9428;50.950;6.912;2023-07-29T07:48:59;5.95;;;1.50;;
18596;SDS011;9428;50.950;6.912;2023-07-29T07:51:47;1.80;;;1.70;;
18596;SDS011;9428;50.950;6.912;2023-07-29T07:54:34;2.90;;;1.67;;
18596;SDS011;9428;50.950;6.912;2023-07-29T07:57:22;2.70;;;1.67;;
18596;SDS011;9428;50.950;6.912;2023-07-29T08:00:09;3.17;;;1.50;;
18596;SDS011;9428;50.950;6.912;2023-07-29T08:02:57;8.82;;;1.80;;
18596;SDS011;9428;50.950;6.912;2023-07-29T08:05:44;2.10;;;1.60;;
18596;SDS011;9428;50.950;6.912;2023-07-29T08:08:33;1.40;;;1.30;;
18596;SDS011;9428;50.950;6.912;2023-07-29T08:11:20;5.80;;;1.80;;
18596;SDS011;9428;50.950;6.912;2023-07-29T08:14:07;3.05;;;1.63;;
18596;SDS011;9428;50.950;6.912;2023-07-29T08:16:54;4.65;;;1.90;;
18596;SDS011;9428;50.950;6.912;2023-07-29T08:19:42;4.03;;;1.52;;
18596;SDS011;9428;50.950;6.912;2023-07-29T08:22:29;1.98;;;1.60;;
18596;SDS011;9428;50.950;6.912;2023-07-29T08:25:17;5.63;;;1.58;;
18596;SDS011;9428;50.950;6.912;2023-07-29T08:28:05;6.00;;;1.88;;
18596;SDS011;9428;50.950;6.912;2023-07-29T08:30:52;3.17;;;1.50;;
18596;SDS011;9428;50.950;6.912;2023-07-29T08:33:40;5.03;;;1.60;;
18596;SDS011;9428;50.950;6.912;2023-07-29T08:36:27;1.73;;;1.20;;
18596;SDS011;9428;50.950;6.912;2023-07-29T08:39:14;3.00;;;1.30;;
18596;SDS011;9428;50.950;6.912;2023-07-29T08:42:03;1.55;;;1.35;;
18596;SDS011;9428;50.950;6.912;2023-07-29T08:44:55;2.28;;;1.50;;
18596;SDS011;9428;50.950;6.912;2023-07-29T08:47:44;6.53;;;1.58;;
18596;SDS011;9428;50.950;6.912;2023-07-29T08:50:32;1.92;;;1.30;;
18596;SDS011;9428;50.950;6.912;2023-07-29T08:53:21;1.50;;;1.20;;
18596;SDS011;9428;50.950;6.912;2023-07-29T08:56:09;6.72;;;1.65;;
18596;SDS011;9428;50.950;6.912;2023-07-29T08:58:57;3.38;;;1.30;;
18596;SDS011;9428;50.950;6.912;2023-07-29T09:01:47;3.03;;;1.20;;
18596;SDS011;9428;50.950;6.912;2023-07-29T09:04:35;1.70;;;1.23;;
18596;SDS011;9428;50.950;6.912;2023-07-29T09:07:22;1.40;;;1.15;;
18596;SDS011;9428;50.950;6.912;2023-07-29T09:10:11;1.42;;;1.10;;
18596;SDS011;9428;50.950;6.912;2023-07-29T09:13:01;3.78;;;1.00;;
18596;SDS011;9428;50.950;6.912;2023-07-29T09:15:53;2.20;;;1.30;;
18596;SDS011;9428;50.950;6.912;2023-07-29T09:18:41;1.55;;;1.05;;
18596;SDS011;9428;50.950;6.912;2023-07-29T09:21:29;3.78;;;1.40;;
18596;SDS011;9428;50.950;6.912;2023-07-29T09:24:16;7.65;;;1.58;;
18596;SDS011;9428;50.950;6.912;2023-07-29T09:27:04;2.15;;;1.40;;
18596;SDS011;9428;50.950;6.912;2023-07-29T09:29:53;3.28;;;1.83;;
18596;SDS011;9428;50.950;6.912;2023-07-29T09:32:42;3.08;;;1.60;;
18596;SDS011;9428;50.950;6.912;2023-07-29T09:35:30;1.92;;;1.40;;
18596;SDS011;9428;50.950;6.912;2023-07-29T09:38:25;2.50;;;1.40;;
18596;SDS011;9428;50.950;6.912;2023-07-29T09:41:13;2.75;;;1.13;;
18596;SDS011;9428;50.950;6.912;2023-07-29T09:44:03;4.05;;;1.80;;
18596;SDS011;9428;50.950;6.912;2023-07-29T09:46:51;2.55;;;1.58;;
18596;SDS011;9428;50.950;6.912;2023-07-29T09:49:40;1.95;;;1.40;;
18596;SDS011;9428;50.950;6.912;2023-07-29T09:52:28;6.10;;;1.38;;
18596;SDS011;9428;50.950;6.912;2023-07-29T09:55:17;2.53;;;1.42;;
18596;SDS011;9428;50.950;6.912;2023-07-29T09:58:05;1.50;;;1.20;;
18596;SDS011;9428;50.950;6.912;2023-07-29T10:00:53;2.25;;;1.48;;
18596;SDS011;9428;50.950;6.912;2023-07-29T10:03:41;2.15;;;1.20;;
18596;SDS011;9428;50.950;6.912;2023-07-29T10:06:30;7.47;;;1.20;;
18596;SDS011;9428;50.950;6.912;2023-07-29T10:09:19;1.77;;;1.30;;
18596;SDS011;9428;50.950;6.912;2023-07-29T10:12:07;2.30;;;1.38;;
18596;SDS011;9428;50.950;6.912;2023-07-29T10:14:58;4.82;;;1.40;;
18596;SDS011;9428;50.950;6.912;2023-07-29T10:17:46;4.65;;;1.60;;
18596;SDS011;9428;50.950;6.912;2023-07-29T10:20:36;2.65;;;1.25;;
18596;SDS011;9428;50.950;6.912;2023-07-29T10:23:27;1.77;;;1.50;;
18596;SDS011;9428;50.950;6.912;2023-07-29T10:26:17;1.45;;;1.35;;
18596;SDS011;9428;50.950;6.912;2023-07-29T10:29:07;2.67;;;1.40;;
18596;SDS011;9428;50.950;6.912;2023-07-29T10:31:56;1.60;;;1.45;;
18596;SDS011;9428;50.950;6.912;2023-07-29T10:34:44;2.42;;;1.25;;
18596;SDS011;9428;50.950;6.912;2023-07-29T10:37:31;1.70;;;1.50;;
18596;SDS011;9428;50.950;6.912;2023-07-29T10:40:21;2.05;;;1.40;;
18596;SDS011;9428;50.950;6.912;2023-07-29T10:43:09;2.85;;;1.45;;
18596;SDS011;9428;50.950;6.912;2023-07-29T10:45:58;2.03;;;1.60;;
18596;SDS011;9428;50.950;6.912;2023-07-29T10:49:01;5.18;;;1.65;;
18596;SDS011;9428;50.950;6.912;2023-07-29T10:51:49;3.78;;;2.03;;
18596;SDS011;9428;50.950;6.912;2023-07-29T10:54:41;3.80;;;1.50;;
18596;SDS011;9428;50.950;6.912;2023-07-29T10:57:34;2.00;;;1.67;;
18596;SDS011;9428;50.950;6.912;2023-07-29T11:00:22;1.92;;;1.60;;
18596;SDS011;9428;50.950;6.912;2023-07-29T11:03:16;4.90;;;1.70;;
18596;SDS011;9428;50.950;6.912;2023-07-29T11:06:04;5.47;;;1.60;;
18596;SDS011;9428;50.950;6.912;2023-07-29T11:08:51;4.90;;;1.40;;
18596;SDS011;9428;50.950;6.912;2023-07-29T11:11:38;1.73;;;1.63;;
18596;SDS011;9428;50.950;6.912;2023-07-29T11:14:27;2.10;;;1.83;;
18596;SDS011;9428;50.950;6.912;2023-07-29T11:17:14;1.80;;;1.52;;
18596;SDS011;9428;50.950;6.912;2023-07-29T11:20:02;2.63;;;1.30;;
18596;SDS011;9428;50.950;6.912;2023-07-29T11:22:50;2.15;;;1.65;;
18596;SDS011;9428;50.950;6.912;2023-07-29T11:25:38;2.03;;;1.30;;
18596;SDS011;9428;50.950;6.912;2023-07-29T11:28:26;1.40;;;1.23;;
18596;SDS011;9428;50.950;6.912;2023-07-29T11:31:15;3.95;;;1.52;;
18596;SDS011;9428;50.950;6.912;2023-07-29T11:34:06;2.95;;;1.60;;
18596;SDS011;9428;50.950;6.912;2023-07-29T11:36:53;2.53;;;1.60;;
18596;SDS011;9428;50.950;6.912;2023-07-29T11:39:40;1.83;;;1.35;;
18596;SDS011;9428;50.950;6.912;2023-07-29T11:42:28;2.50;;;1.38;;
18596;SDS011;9428;50.950;6.912;2023-07-29T11:45:18;2.05;;;1.50;;
18596;SDS011;9428;50.950;6.912;2023-07-29T11:48:07;2.72;;;1.60;;
18596;SDS011;9428;50.950;6.912;2023-07-29T11:50:56;1.80;;;1.55;;
18596;SDS011;9428;50.950;6.912;2023-07-29T11:53:43;2.15;;;1.42;;
18596;SDS011;9428;50.950;6.912;2023-07-29T11:56:32;2.08;;;1.70;;
18596;SDS011;9428;50.950;6.912;2023-07-29T11:59:19;6.10;;;2.20;;
18596;SDS011;9428;50.950;6.912;2023-07-29T12:02:07;3.00;;;1.60;;
18596;SDS011;9428;50.950;6.912;2023-07-29T12:04:59;3.05;;;1.90;;
18596;SDS011;9428;50.950;6.912;2023-07-29T12:07:46;3.63;;;1.80;;
18596;SDS011;9428;50.950;6.912;2023-07-29T12:10:34;2.40;;;1.40;;
18596;SDS011;9428;50.950;6.912;2023-07-29T12:13:23;3.00;;;1.50;;
18596;SDS011;9428;50.950;6.912;2023-07-29T12:16:15;1.85;;;1.65;;
18596;SDS011;9428;50.950;6.912;2023-07-29T12:19:03;2.65;;;1.30;;
18596;SDS011;9428;50.950;6.912;2023-07-29T12:21:52;2.63;;;1.58;;
18596;SDS011;9428;50.950;6.912;2023-07-29T12:24:40;1.67;;;1.38;;
18596;SDS011;9428;50.950;6.912;2023-07-29T12:27:27;2.22;;;1.40;;
18596;SDS011;9428;50.950;6.912;2023-07-29T12:30:20;1.30;;;1.20;;
18596;SDS011;9428;50.950;6.912;2023-07-29T12:33:08;2.10;;;1.40;;
18596;SDS011;9428;50.950;6.912;2023-07-29T12:35:55;2.10;;;1.50;;
18596;SDS011;9428;50.950;6.912;2023-07-29T12:38:44;3.03;;;1.55;;
18596;SDS011;9428;50.950;6.912;2023-07-29T12:41:31;3.25;;;1.42;;
18596;SDS011;9428;50.950;6.912;2023-07-29T12:44:19;3.55;;;1.55;;
18596;SDS011;9428;50.950;6.912;2023-07-29T12:47:06;2.10;;;1.52;;
18596;SDS011;9428;50.950;6.912;2023-07-29T12:49:56;1.88;;;1.40;;
18596;SDS011;9428;50.950;6.912;2023-07-29T12:52:44;2.28;;;1.67;;
18596;SDS011;9428;50.950;6.912;2023-07-29T12:55:32;2.58;;;1.58;;
18596;SDS011;9428;50.950;6.912;2023-07-29T12:58:19;2.35;;;1.80;;
18596;SDS011;9428;50.950;6.912;2023-07-29T13:01:07;2.25;;;1.25;;
18596;SDS011;9428;50.950;6.912;2023-07-29T13:03:54;1.58;;;1.40;;
18596;SDS011;9428;50.950;6.912;2023-07-29T13:06:42;2.28;;;1.45;;
18596;SDS011;9428;50.950;6.912;2023-07-29T13:09:29;1.65;;;1.52;;
18596;SDS011;9428;50.950;6.912;2023-07-29T13:12:18;2.53;;;1.60;;
18596;SDS011;9428;50.950;6.912;2023-07-29T13:15:06;2.15;;;1.55;;
18596;SDS011;9428;50.950;6.912;2023-07-29T13:17:53;3.00;;;1.70;;
18596;SDS011;9428;50.950;6.912;2023-07-29T13:20:40;5.35;;;1.70;;
18596;SDS011;9428;50.950;6.912;2023-07-29T13:23:28;2.72;;;1.70;;
18596;SDS011;9428;50.950;6.912;2023-07-29T13:26:15;4.38;;;1.65;;
18596;SDS011;9428;50.950;6.912;2023-07-29T13:29:04;2.08;;;1.48;;
18596;SDS011;9428;50.950;6.912;2023-07-29T13:31:51;2.30;;;1.80;;
18596;SDS011;9428;50.950;6.912;2023-07-29T13:34:38;2.30;;;1.90;;
18596;SDS011;9428;50.950;6.912;2023-07-29T13:37:25;2.67;;;1.83;;
18596;SDS011;9428;50.950;6.912;2023-07-29T13:40:13;3.85;;;2.13;;
18596;SDS011;9428;50.950;6.912;2023-07-29T13:43:00;3.17;;;1.90;;
18596;SDS011;9428;50.950;6.912;2023-07-29T13:45:49;7.47;;;2.40;;
18596;SDS011;9428;50.950;6.912;2023-07-29T13:48:36;3.65;;;2.03;;
18596;SDS011;9428;50.950;6.912;2023-07-29T13:51:23;6.85;;;2.65;;
18596;SDS011;9428;50.950;6.912;2023-07-29T13:54:10;2.75;;;2.15;;
18596;SDS011;9428;50.950;6.912;2023-07-29T13:56:57;3.90;;;2.28;;
18596;SDS011;9428;50.950;6.912;2023-07-29T13:59:45;9.50;;;3.17;;
18596;SDS011;9428;50.950;6.912;2023-07-29T14:02:33;10.55;;;3.67;;
18596;SDS011;9428;50.950;6.912;2023-07-29T14:05:20;7.05;;;3.63;;
18596;SDS011;9428;50.950;6.912;2023-07-29T14:08:08;6.18;;;2.78;;
18596;SDS011;9428;50.950;6.912;2023-07-29T14:10:55;3.08;;;2.30;;
18596;SDS011;9428;50.950;6.912;2023-07-29T14:13:42;4.07;;;2.80;;
18596;SDS011;9428;50.950;6.912;2023-07-29T14:16:30;4.35;;;3.75;;
18596;SDS011;9428;50.950;6.912;2023-07-29T14:19:18;6.20;;;2.25;;
18596;SDS011;9428;50.950;6.912;2023-07-29T14:22:05;3.72;;;2.60;;
18596;SDS011;9428;50.950;6.912;2023-07-29T14:24:52;4.10;;;2.67;;
18596;SDS011;9428;50.950;6.912;2023-07-29T14:27:40;3.03;;;2.55;;
18596;SDS011;9428;50.950;6.912;2023-07-29T14:30:27;4.30;;;1.83;;
18596;SDS011;9428;50.950;6.912;2023-07-29T14:33:15;4.30;;;2.60;;
18596;SDS011;9428;50.950;6.912;2023-07-29T14:36:04;3.90;;;2.70;;
18596;SDS011;9428;50.950;6.912;2023-07-29T14:38:53;2.80;;;2.10;;
18596;SDS011;9428;50.950;6.912;2023-07-29T14:41:40;4.18;;;1.92;;
18596;SDS011;9428;50.950;6.912;2023-07-29T14:44:27;2.80;;;2.10;;
18596;SDS011;9428;50.950;6.912;2023-07-29T14:47:14;3.88;;;2.25;;
18596;SDS011;9428;50.950;6.912;2023-07-29T14:50:01;5.25;;;2.92;;
18596;SDS011;9428;50.950;6.912;2023-07-29T14:52:50;2.85;;;2.30;;
18596;SDS011;9428;50.950;6.912;2023-07-29T14:55:37;3.40;;;2.10;;
18596;SDS011;9428;50.950;6.912;2023-07-29T14:58:25;2.80;;;2.20;;
18596;SDS011;9428;50.950;6.912;2023-07-29T15:01:12;3.50;;;2.03;;
18596;SDS011;9428;50.950;6.912;2023-07-29T15:03:59;2.53;;;1.95;;
18596;SDS011;9428;50.950;6.912;2023-07-29T15:06:46;2.38;;;2.08;;
18596;SDS011;9428;50.950;6.912;2023-07-29T15:09:35;2.72;;;2.10;;
18596;SDS011;9428;50.950;6.912;2023-07-29T15:12:23;4.00;;;2.80;;
18596;SDS011;9428;50.950;6.912;2023-07-29T15:15:10;4.10;;;3.50;;
18596;SDS011;9428;50.950;6.912;2023-07-29T15:17:58;3.42;;;2.47;;
18596;SDS011;9428;50.950;6.912;2023-07-29T15:20:45;3.35;;;2.40;;
18596;SDS011;9428;50.950;6.912;2023-07-29T15:23:32;2.67;;;2.25;;
18596;SDS011;9428;50.950;6.912;2023-07-29T15:26:21;2.55;;;2.30;;
18596;SDS011;9428;50.950;6.912;2023-07-29T15:29:08;3.45;;;2.55;;
18596;SDS011;9428;50.950;6.912;2023-07-29T15:31:55;4.20;;;2.70;;
18596;SDS011;9428;50.950;6.912;2023-07-29T15:34:43;2.47;;;1.75;;
18596;SDS011;9428;50.950;6.912;2023-07-29T15:37:30;4.38;;;2.28;;
18596;SDS011;9428;50.950;6.912;2023-07-29T15:40:17;3.72;;;2.45;;
18596;SDS011;9428;50.950;6.912;2023-07-29T15:43:06;3.33;;;2.72;;
18596;SDS011;9428;50.950;6.912;2023-07-29T15:45:53;6.53;;;4.78;;
18596;SDS011;9428;50.950;6.912;2023-07-29T15:48:40;4.55;;;4.00;;
18596;SDS011;9428;50.950;6.912;2023-07-29T15:51:27;4.25;;;3.25;;
18596;SDS011;9428;50.950;6.912;2023-07-29T15:54:14;6.47;;;3.90;;
18596;SDS011;9428;50.950;6.912;2023-07-29T15:57:02;4.60;;;2.78;;
18596;SDS011;9428;50.950;6.912;2023-07-29T15:59:50;3.20;;;2.90;;
18596;SDS011;9428;50.950;6.912;2023-07-29T16:02:38;3.95;;;2.55;;
18596;SDS011;9428;50.950;6.912;2023-07-29T16:05:25;3.17;;;2.80;;
18596;SDS011;9428;50.950;6.912;2023-07-29T16:08:12;7.88;;;3.20;;
18596;SDS011;9428;50.950;6.912;2023-07-29T16:10:59;4.20;;;2.42;;
18596;SDS011;9428;50.950;6.912;2023-07-29T16:13:47;3.45;;;2.60;;
18596;SDS011;9428;50.950;6.912;2023-07-29T16:16:36;3.10;;;2.47;;
18596;SDS011;9428;50.950;6.912;2023-07-29T16:19:23;7.60;;;4.80;;
18596;SDS011;9428;50.950;6.912;2023-07-29T16:22:13;4.80;;;3.60;;
18596;SDS011;9428;50.950;6.912;2023-07-29T16:25:03;6.15;;;4.20;;
18596;SDS011;9428;50.950;6.912;2023-07-29T16:27:51;4.78;;;3.85;;
18596;SDS011;9428;50.950;6.912;2023-07-29T16:30:41;4.57;;;3.65;;
18596;SDS011;9428;50.950;6.912;2023-07-29T16:33:31;3.30;;;2.50;;
18596;SDS011;9428;50.950;6.912;2023-07-29T16:36:18;3.85;;;2.15;;
18596;SDS011;9428;50.950;6.912;2023-07-29T16:39:05;2.95;;;2.35;;
18596;SDS011;9428;50.950;6.912;2023-07-29T16:41:52;3.97;;;2.17;;
18596;SDS011;9428;50.950;6.912;2023-07-29T16:44:39;2.13;;;1.90;;
18596;SDS011;9428;50.950;6.912;2023-07-29T16:47:27;2.70;;;2.20;;
18596;SDS011;9428;50.950;6.912;2023-07-29T16:50:16;4.30;;;2.85;;
18596;SDS011;9428;50.950;6.912;2023-07-29T16:53:03;5.50;;;2.90;;
18596;SDS011;9428;50.950;6.912;2023-07-29T16:55:50;5.32;;;3.65;;
18596;SDS011;9428;50.950;6.912;2023-07-29T16:58:37;5.55;;;4.07;;
18596;SDS011;9428;50.950;6.912;2023-07-29T17:01:25;6.68;;;4.13;;
18596;SDS011;9428;50.950;6.912;2023-07-29T17:04:12;4.22;;;2.30;;
18596;SDS011;9428;50.950;6.912;2023-07-29T17:07:00;2.47;;;2.15;;